Main page
METAR-TAF:

METAR-TAF

Airports :

Visakhapatnam Airport

Visakhapatnam, India

latitude: 17-43-16N, longitude: 83-13-28E, elevation: 6 m

Current weather observation

The report was made 49 minutes ago, at 18:30 UTC
Wind 2 kt from variable directions
Temperature 24°C
Humidity 100%
Pressure 1012 hPa
Visibility: 4000 m
Few clouds at a height of 1800 ft
mist

METAR: VOVZ 011830Z VRB02KT 4000 BR FEW018 24/24 Q1012 NOSIG

Time: 00:49 (19:19 UTC)

Forecast

The report was made 2 hours and 19 minutes ago, at 17:00 UTC
Forecast valid from 01 at 18 UTC to 02 at 03 UTC
Wind 8 kt from the East
Visibility: 4500 m
Few clouds at a height of 1800 ft
haze
Becoming
from 01 at 18 UTC to 01 at 20 UTC
Wind 2 kt from variable directions
Visibility: 3000 m
mist
Temporary
from 01 at 23 UTC to 02 at 02 UTC
Wind 5 kt from the North/Northwest
Visibility: 1500 m
mist

TAF: VOVZ 011700Z 0118/0203 10008KT 4500 HZ FEW018 BECMG 0118/0120 VRB02KT 3000 BR TEMPO 0123/0202 33005KT 1500 BR

Weather observations and forecasts of more than 4000 airports (METAR and TAF reports).

The available stations are represented by yellow and red dots on the map.

Hover mouse over dot to see the name of the station.

Then click to see weather observations and forecasts.

To change the map : click on the green buttons with a black cross to zoom in, on the green button with a dash to zoom out, or on the green arrows for adjacent maps.


METAR-TAF: